Time;durP1;ratioP1;P1;durP2;ratioP2;P2;SDS_P1;SDS_P2;PMS_P1;PMS_P2;Temp;Humidity;BMP_temperature;BMP_pressure;BME280_temperature;BME280_humidity;BME280_pressure;Samples;Min_cycle;Max_cycle;Signal;HPM_P1;HPM_P2
2022/06/12 00:01:50;;;;;;;10.30;8.68;;;;;;;20.20;61.93;99735.47;5030392;28;20032;-57
2022/06/12 00:04:16;;;;;;;12.73;8.63;;;;;;;20.20;62.37;99734.66;5030025;28;20053;-55
2022/06/12 00:06:42;;;;;;;12.48;9.35;;;;;;;20.13;62.99;99731.00;5031279;28;20033;-57
2022/06/12 00:09:08;;;;;;;16.38;8.95;;;;;;;20.14;62.81;99733.53;5030881;28;20477;-57
2022/06/12 00:11:34;;;;;;;11.98;8.95;;;;;;;20.08;63.29;99729.69;5030214;28;20294;-57
2022/06/12 00:14:03;;;;;;;10.05;8.90;;;;;;;20.08;63.42;99737.84;5030174;28;20079;-58
2022/06/12 00:16:31;;;;;;;10.82;8.55;;;;;;;20.06;63.17;99733.66;5030954;28;20372;-59
2022/06/12 00:18:57;;;;;;;12.48;8.82;;;;;;;20.02;63.27;99732.34;5030389;28;20104;-59
2022/06/12 00:21:24;;;;;;;12.52;9.45;;;;;;;20.00;63.71;99740.66;5030275;28;20144;-59
2022/06/12 00:23:57;;;;;;;12.00;9.13;;;;;;;20.04;64.13;99746.56;5030538;28;20219;-58
2022/06/12 00:26:29;;;;;;;11.73;9.93;;;;;;;20.04;65.12;99741.16;5029784;28;20083;-58
2022/06/12 00:29:05;;;;;;;12.52;9.43;;;;;;;20.02;64.56;99732.34;5030406;28;20167;-55
2022/06/12 00:31:34;;;;;;;14.23;9.75;;;;;;;19.95;65.13;99740.38;5029930;28;20033;-56
2022/06/12 00:34:01;;;;;;;10.85;9.05;;;;;;;19.93;65.91;99729.69;5029888;28;20029;-58
2022/06/12 00:36:27;;;;;;;12.60;8.55;;;;;;;19.96;65.42;99738.50;5030670;28;20135;-59
2022/06/12 00:38:53;;;;;;;15.43;9.50;;;;;;;19.88;65.45;99729.41;5030063;28;20045;-59
2022/06/12 00:41:19;;;;;;;14.20;9.25;;;;;;;19.91;65.74;99737.19;5029919;28;20030;-59
2022/06/12 00:43:44;;;;;;;15.70;9.80;;;;;;;19.74;65.49;99701.19;5030585;28;20521;-55
2022/06/12 00:46:49;;;;;;;13.20;9.63;;;;;;;20.04;65.68;99733.00;5029985;28;20029;-57
2022/06/12 00:49:26;;;;;;;16.73;9.73;;;;;;;19.96;65.75;99730.34;5029531;28;20112;-56
2022/06/12 00:52:01;;;;;;;17.17;10.23;;;;;;;19.92;66.51;99740.78;5029876;28;20034;-57
2022/06/12 00:54:26;;;;;;;13.60;10.10;;;;;;;19.87;66.10;99735.00;5028864;28;20044;-56
2022/06/12 00:56:57;;;;;;;13.05;9.80;;;;;;;19.92;65.95;99740.78;5030090;28;20025;-59
2022/06/12 00:59:25;;;;;;;15.88;10.48;;;;;;;19.94;65.69;99725.13;5030265;28;20061;-58
2022/06/12 01:01:52;;;;;;;18.73;10.13;;;;;;;19.91;65.90;99737.19;5029971;28;20481;-55
2022/06/12 01:07:09;;;;;;;18.15;12.48;;;;;;;20.03;61.93;99734.84;5029784;28;20029;-55
2022/06/12 01:09:40;;;;;;;19.30;12.88;;;;;;;20.04;61.79;99733.81;5029797;28;20177;-57
2022/06/12 01:12:10;;;;;;;15.63;13.07;;;;;;;19.97;61.67;99734.75;5030122;28;20108;-57
2022/06/12 01:14:41;;;;;;;18.35;14.27;;;;;;;19.92;62.13;99736.16;5034234;28;20095;-58
2022/06/12 01:17:09;;;;;;;18.85;14.25;;;;;;;19.98;61.46;99753.59;5033745;28;20040;-55
2022/06/12 01:19:37;;;;;;;18.58;15.00;;;;;;;19.96;62.57;99742.06;5033574;28;20033;-58
2022/06/12 01:22:22;;;;;;;19.02;15.15;;;;;;;20.12;61.74;99748.31;5033842;28;20033;-59
2022/06/12 01:24:51;;;;;;;16.05;13.55;;;;;;;20.01;62.17;99752.34;5029682;28;20066;-55
2022/06/12 01:27:35;;;;;;;19.65;14.45;;;;;;;19.93;62.97;99746.00;5033819;28;20502;-56
2022/06/12 01:30:18;;;;;;;16.83;13.75;;;;;;;20.04;61.41;99750.13;5033098;28;20056;-59
2022/06/12 01:32:50;;;;;;;15.98;13.98;;;;;;;20.00;62.40;99756.09;5014211;28;20038;-58
2022/06/12 01:35:21;;;;;;;14.73;13.10;;;;;;;19.92;62.67;99744.31;5014139;28;20038;-58
2022/06/12 01:38:01;;;;;;;17.65;13.77;;;;;;;19.98;63.72;99753.59;5019280;28;20052;-59
2022/06/12 01:40:38;;;;;;;15.20;13.07;;;;;;;20.04;61.84;99746.56;5033629;28;20037;-57
2022/06/12 01:43:14;;;;;;;15.95;14.00;;;;;;;19.98;64.29;99747.31;5033756;28;20025;-59
2022/06/12 01:45:49;;;;;;;16.83;13.82;;;;;;;19.99;64.65;99738.97;5033487;28;20033;-55
2022/06/12 01:48:30;;;;;;;16.20;14.07;;;;;;;19.93;65.22;99746.00;5013167;28;20454;-58
2022/06/12 01:51:04;;;;;;;17.65;13.73;;;;;;;19.96;64.77;99739.34;5021697;28;20026;-57
2022/06/12 01:53:41;;;;;;;16.95;14.38;;;;;;;20.02;64.22;99743.22;5033364;28;20168;-58
2022/06/12 01:56:27;;;;;;;18.20;15.13;;;;;;;20.04;64.60;99749.28;5033179;28;20041;-59
2022/06/12 01:59:21;;;;;;;15.35;13.57;;;;;;;20.17;63.86;99741.31;5032621;28;20041;-57
2022/06/12 02:02:03;;;;;;;16.63;14.55;;;;;;;20.25;64.35;99750.38;5032515;28;20033;-58
2022/06/12 02:04:38;;;;;;;16.80;13.93;;;;;;;20.20;64.75;99740.09;5033170;28;20038;-58
2022/06/12 02:07:14;;;;;;;16.42;13.38;;;;;;;20.41;63.90;99752.06;5032832;28;20083;-58
2022/06/12 02:10:08;;;;;;;17.00;12.88;;;;;;;20.54;63.09;99743.22;5032677;28;20432;-57
2022/06/12 02:15:53;;;;;;;15.40;13.13;;;;;;;20.65;63.83;99748.16;5031859;28;20064;-68
2022/06/12 02:18:32;;;;;;;16.30;12.35;;;;;;;20.45;62.47;99720.75;5032586;28;20735;-67
2022/06/12 02:21:23;;;;;;;16.60;12.77;;;;;;;20.61;61.38;99744.13;5032749;28;20116;-67
2022/06/12 02:23:52;;;;;;;19.63;13.43;;;;;;;20.57;61.06;99751.81;5031978;28;20421;-62
2022/06/12 02:26:22;;;;;;;16.60;12.55;;;;;;;20.54;60.20;99754.09;5033088;28;20041;-63
2022/06/12 02:28:55;;;;;;;18.75;13.52;;;;;;;20.58;59.64;99747.25;5032874;28;20029;-55
2022/06/12 02:31:26;;;;;;;16.95;13.35;;;;;;;20.53;60.07;99755.16;5033056;28;20036;-61
2022/06/12 02:33:58;;;;;;;19.13;12.88;;;;;;;20.54;60.16;99751.38;5032697;28;20430;-61
2022/06/12 02:36:27;;;;;;;20.67;14.25;;;;;;;20.60;60.73;99761.50;5032096;28;20033;-62
2022/06/12 02:38:59;;;;;;;16.27;13.40;;;;;;;20.72;60.75;99756.41;5014877;28;20393;-62
2022/06/12 02:41:33;;;;;;;17.60;14.05;;;;;;;20.86;58.46;99757.41;5031859;28;20049;-62
2022/06/12 02:44:04;;;;;;;21.90;13.02;;;;;;;20.84;58.79;99764.94;5032221;28;20030;-62
2022/06/12 02:46:59;;;;;;;18.67;14.63;;;;;;;20.92;58.92;99753.91;5032055;28;20025;-62
2022/06/12 02:49:25;;;;;;;17.25;14.07;;;;;;;20.82;58.61;99756.94;5032313;28;20094;-61
2022/06/12 02:51:53;;;;;;;18.17;15.65;;;;;;;20.81;58.26;99751.72;5032513;28;20034;-62
2022/06/12 02:54:32;;;;;;;17.20;14.80;;;;;;;20.86;58.07;99744.66;5032326;28;20552;-62
2022/06/12 02:57:19;;;;;;;19.58;14.90;;;;;;;20.89;57.60;99751.56;5031408;28;20033;-68
2022/06/12 02:59:51;;;;;;;19.50;16.00;;;;;;;21.14;56.99;99762.09;5032379;28;20049;-69
2022/06/12 03:02:31;;;;;;;18.60;14.95;;;;;;;21.52;55.69;99761.78;5031722;28;20113;-68
2022/06/12 03:05:13;;;;;;;18.48;15.20;;;;;;;22.19;54.01;99762.25;5031764;28;20046;-69
2022/06/12 03:07:39;;;;;;;17.20;14.98;;;;;;;23.08;51.44;99754.16;5032090;28;20044;-64
2022/06/12 03:10:10;;;;;;;20.52;15.90;;;;;;;23.84;48.97;99758.59;5032489;28;20029;-67
2022/06/12 03:12:37;;;;;;;19.13;15.75;;;;;;;24.39;46.71;99754.66;5031495;28;20030;-67
2022/06/12 03:15:08;;;;;;;18.05;15.98;;;;;;;25.03;45.78;99730.13;5031427;28;20040;-69
2022/06/12 03:17:33;;;;;;;17.77;15.75;;;;;;;26.14;43.04;99756.09;5012140;28;20099;-66
2022/06/12 03:19:59;;;;;;;16.25;14.55;;;;;;;26.61;41.69;99747.34;5012253;28;20030;-69
2022/06/12 03:22:43;;;;;;;19.88;14.90;;;;;;;26.91;39.86;99763.00;5011972;28;20034;-69
2022/06/12 03:25:17;;;;;;;16.42;12.95;;;;;;;26.98;39.57;99761.00;5026973;28;20485;-67
2022/06/12 03:27:49;;;;;;;16.83;12.93;;;;;;;26.81;39.91;99752.53;5032087;28;20140;-67
2022/06/12 03:30:27;;;;;;;15.98;12.40;;;;;;;26.55;40.42;99738.13;5031529;28;20038;-68
2022/06/12 03:33:03;;;;;;;14.57;11.85;;;;;;;26.79;40.53;99755.53;5031468;28;20052;-67
2022/06/12 03:35:47;;;;;;;13.90;11.45;;;;;;;26.96;39.51;99760.38;5030555;28;20133;-66
2022/06/12 03:38:39;;;;;;;13.27;11.65;;;;;;;27.31;39.15;99761.53;5031575;28;20497;-68
2022/06/12 03:41:20;;;;;;;16.42;10.73;;;;;;;27.71;37.03;99769.16;5031021;28;20029;-68
2022/06/12 03:44:07;;;;;;;12.63;10.68;;;;;;;28.29;36.26;99763.84;5030820;28;20048;-69
2022/06/12 03:46:35;;;;;;;12.32;10.43;;;;;;;28.45;35.47;99764.16;5031458;28;20112;-68
2022/06/12 03:49:13;;;;;;;13.27;10.20;;;;;;;28.86;34.91;99775.19;5031178;28;20052;-69
2022/06/12 03:51:57;;;;;;;15.38;10.20;;;;;;;29.46;33.33;99767.44;5029626;28;20029;-67
2022/06/12 03:54:30;;;;;;;12.63;9.48;;;;;;;29.98;32.28;99780.06;5030896;28;20087;-65
2022/06/12 04:00:00;;;;;;;10.95;9.13;;;;;;;30.03;32.00;99785.72;5028881;28;20054;-68
2022/06/12 04:02:27;;;;;;;10.73;9.30;;;;;;;29.48;32.06;99781.81;5028940;28;20029;-65
2022/06/12 04:04:54;;;;;;;12.90;9.35;;;;;;;29.23;32.73;99778.31;5030880;28;20038;-69
2022/06/12 04:07:24;;;;;;;9.90;8.38;;;;;;;29.44;32.46;99780.63;5031117;28;20437;-69
2022/06/12 04:09:52;;;;;;;10.52;8.60;;;;;;;29.99;31.34;99767.94;5029541;28;20030;-68
2022/06/12 04:12:25;;;;;;;10.10;8.35;;;;;;;30.47;30.55;99751.75;5030603;28;20029;-68
2022/06/12 04:15:22;;;;;;;10.18;8.48;;;;;;;31.11;29.58;99774.25;5030794;28;20036;-67
2022/06/12 04:17:48;;;;;;;11.57;7.53;;;;;;;31.88;27.28;99765.78;5030482;28;20045;-68
2022/06/12 04:20:22;;;;;;;9.60;6.32;;;;;;;32.58;26.53;99770.28;5029482;28;20473;-69
2022/06/12 04:23:08;;;;;;;7.22;6.28;;;;;;;33.02;26.39;99793.94;5030328;28;20101;-67
2022/06/12 04:25:54;;;;;;;9.73;5.93;;;;;;;33.11;26.65;99785.94;5030959;28;20033;-68
2022/06/12 04:28:24;;;;;;;;;;;;;;;33.55;26.77;99783.75;5010999;28;20041;-69
2022/06/12 04:30:50;;;;;;;5.20;4.70;;;;;;;32.12;25.72;99742.34;5010653;28;20412;-68
2022/06/12 04:33:35;;;;;;;6.18;5.13;;;;;;;31.83;27.44;99774.06;5010888;28;20109;-67
2022/06/12 04:36:03;;;;;;;7.95;4.88;;;;;;;30.68;27.52;99787.06;5022768;28;20428;-67
2022/06/12 04:38:32;;;;;;;6.47;4.80;;;;;;;30.04;28.66;99770.81;5030492;28;20056;-69
2022/06/12 04:40:57;;;;;;;6.50;5.90;;;;;;;30.42;28.29;99782.06;5030487;28;20022;-68
2022/06/12 04:43:23;;;;;;;10.18;5.90;;;;;;;30.71;27.14;99776.34;5030286;28;20366;-68
2022/06/12 04:45:49;;;;;;;8.00;5.93;;;;;;;30.39;28.01;99767.94;5030238;28;20539;-70
2022/06/12 04:48:21;;;;;;;8.50;5.80;;;;;;;30.25;28.60;99784.06;5031283;28;20025;-70
2022/06/12 04:50:47;;;;;;;8.82;6.03;;;;;;;29.64;29.01;99780.94;5034415;28;20048;-71
2022/06/12 04:53:12;;;;;;;10.55;6.25;;;;;;;28.97;30.23;99771.53;5034203;28;20030;-68
2022/06/12 04:55:38;;;;;;;8.50;6.43;;;;;;;28.42;31.39;99762.72;5034443;28;20029;-68
2022/06/12 04:58:05;;;;;;;8.57;6.60;;;;;;;28.11;31.97;99784.06;5033285;28;20040;-69
2022/06/12 05:00:34;;;;;;;9.40;6.78;;;;;;;27.75;32.61;99783.28;5034055;28;20036;-63
2022/06/12 05:03:00;;;;;;;9.10;6.93;;;;;;;27.15;33.74;99746.59;5034728;28;20034;-68
2022/06/12 05:05:25;;;;;;;9.40;7.00;;;;;;;27.02;33.94;99753.97;5034340;28;20068;-69
2022/06/12 05:07:52;;;;;;;9.60;6.72;;;;;;;27.17;33.86;99774.66;5034082;28;20149;-67
2022/06/12 05:10:18;;;;;;;11.25;7.07;;;;;;;27.14;33.91;99777.88;5033930;28;20116;-68
2022/06/12 05:12:44;;;;;;;9.00;7.20;;;;;;;27.14;34.40;99783.38;5034319;28;20033;-69
2022/06/12 05:15:12;;;;;;;7.50;6.70;;;;;;;27.27;34.41;99785.94;5033943;28;20056;-68
2022/06/12 05:17:44;;;;;;;8.23;7.03;;;;;;;27.76;33.53;99794.03;5033910;28;20437;-68
2022/06/12 05:20:24;;;;;;;8.13;6.63;;;;;;;28.46;32.26;99785.97;5033626;28;20033;-68
2022/06/12 05:22:50;;;;;;;11.32;6.82;;;;;;;28.63;31.95;99783.28;5034440;28;20045;-69
2022/06/12 05:25:17;;;;;;;8.85;6.75;;;;;;;28.97;31.06;99788.06;5034025;28;20042;-68
2022/06/12 05:27:45;;;;;;;7.32;6.32;;;;;;;29.26;30.71;99789.94;5033447;28;20037;-69
2022/06/12 05:30:20;;;;;;;9.43;6.25;;;;;;;29.62;30.18;99761.06;5033378;28;20873;-68
2022/06/12 05:32:48;;;;;;;7.35;6.35;;;;;;;29.35;30.48;99780.19;5034100;28;20163;-69
2022/06/12 05:35:14;;;;;;;12.15;7.15;;;;;;;29.81;29.62;99788.38;5033544;28;20041;-67
2022/06/12 05:37:40;;;;;;;7.13;5.85;;;;;;;31.92;27.00;99782.69;5033192;28;20041;-68
2022/06/12 05:40:12;;;;;;;6.78;5.97;;;;;;;34.72;23.48;99783.69;5033357;28;20036;-67
2022/06/12 05:42:39;;;;;;;6.40;5.80;;;;;;;36.97;20.48;99781.22;5032928;28;20033;-67
2022/06/12 05:45:07;;;;;;;6.90;5.53;;;;;;;37.95;19.55;99776.78;5033712;28;20441;-66
2022/06/12 05:47:33;;;;;;;7.50;5.28;;;;;;;39.08;17.75;99788.72;5033329;28;20038;-67
2022/06/12 05:49:59;;;;;;;6.75;5.90;;;;;;;39.90;16.89;99791.38;5033086;28;20038;-69
2022/06/12 05:52:24;;;;;;;5.60;5.10;;;;;;;41.05;15.84;99781.25;5033714;28;20048;-68
2022/06/12 05:54:50;;;;;;;5.40;4.97;;;;;;;41.01;15.57;99786.72;5033155;28;20034;-68
2022/06/12 05:57:16;;;;;;;8.05;5.40;;;;;;;40.11;16.68;99788.84;5033137;28;20056;-69
2022/06/12 05:59:41;;;;;;;5.78;5.28;;;;;;;39.03;17.58;99776.47;5032768;28;20172;-68
2022/06/12 06:02:07;;;;;;;5.25;4.85;;;;;;;39.28;17.30;99782.56;5033365;28;20068;-69
2022/06/12 06:04:33;;;;;;;8.35;5.55;;;;;;;39.23;17.19;99791.09;5033465;28;20037;-66
2022/06/12 06:06:59;;;;;;;6.65;5.10;;;;;;;39.43;17.50;99784.22;5032962;28;20029;-69
2022/06/12 06:09:26;;;;;;;6.72;5.00;;;;;;;40.66;16.46;99785.88;5032164;28;20028;-67
2022/06/12 06:11:52;;;;;;;5.60;4.90;;;;;;;40.06;16.44;99783.38;5032842;28;20044;-68
2022/06/12 06:14:18;;;;;;;5.38;4.68;;;;;;;38.92;17.45;99786.25;5032343;28;20026;-67
2022/06/12 06:16:44;;;;;;;6.20;5.40;;;;;;;37.18;19.22;99759.44;5032831;28;20487;-68
2022/06/12 06:19:10;;;;;;;6.22;5.72;;;;;;;35.59;20.97;99778.66;5032256;28;20596;-70
2022/06/12 06:21:37;;;;;;;5.97;5.40;;;;;;;35.39;21.21;99768.53;5033031;28;20064;-67
2022/06/12 06:24:03;;;;;;;6.20;5.60;;;;;;;37.67;19.19;99767.56;5032818;28;20143;-68
2022/06/12 06:26:29;;;;;;;6.25;4.75;;;;;;;40.74;16.26;99763.44;5032432;28;20033;-68
2022/06/12 06:28:57;;;;;;;5.03;4.63;;;;;;;40.54;16.25;99764.06;5032394;28;20026;-70
2022/06/12 06:31:23;;;;;;;5.43;4.90;;;;;;;40.92;16.24;99771.03;5032317;28;20040;-69
2022/06/12 06:33:48;;;;;;;6.43;4.90;;;;;;;42.79;14.45;99762.44;5032008;28;20025;-66
2022/06/12 06:36:15;;;;;;;6.38;4.22;;;;;;;43.15;13.30;99764.59;5032881;28;20476;-69
2022/06/12 06:38:41;;;;;;;7.47;4.00;;;;;;;41.57;14.74;99766.34;5030824;28;20110;-70
2022/06/12 06:41:07;;;;;;;4.30;4.00;;;;;;;41.49;14.85;99758.75;5032620;28;20033;-62
2022/06/12 06:46:13;;;;;;;6.50;3.80;;;;;;;43.41;13.24;99754.25;5033252;28;20026;-70
2022/06/12 06:46:18;;;;;;;4.38;3.97;;;;;;;45.68;11.31;99753.13;5031806;28;20112;-69
2022/06/12 06:48:44;;;;;;;4.22;3.90;;;;;;;46.61;10.56;99756.56;5032102;28;20441;-69
2022/06/12 06:51:09;;;;;;;4.03;3.63;;;;;;;43.91;12.54;99749.53;5032472;28;20037;-70
2022/06/12 06:53:35;;;;;;;5.68;4.22;;;;;;;40.81;14.97;99739.69;5032168;28;20037;-70
2022/06/12 06:56:01;;;;;;;4.28;3.88;;;;;;;37.95;18.34;99736.84;5031816;28;20037;-69
2022/06/12 06:58:30;;;;;;;5.82;4.68;;;;;;;37.82;17.98;99744.88;5031894;28;20476;-68
2022/06/12 07:00:55;;;;;;;4.53;4.15;;;;;;;39.58;15.94;99729.75;5031912;28;20410;-69
2022/06/12 07:03:21;;;;;;;4.63;4.10;;;;;;;41.31;14.72;99741.94;5031455;28;20037;-71
2022/06/12 07:05:48;;;;;;;5.00;4.22;;;;;;;41.86;14.14;99739.47;5031595;28;20044;-71
2022/06/12 07:08:16;;;;;;;5.82;3.63;;;;;;;43.78;12.60;99740.25;5032258;28;20103;-69
2022/06/12 07:10:42;;;;;;;4.50;3.65;;;;;;;45.50;11.46;99745.00;5031223;28;20034;-68
2022/06/12 07:13:09;;;;;;;3.92;3.50;;;;;;;44.49;11.97;99733.63;5029740;28;20430;-68
2022/06/12 07:15:36;;;;;;;4.30;3.90;;;;;;;42.93;12.84;99740.47;5031211;28;20060;-68
2022/06/12 07:18:04;;;;;;;4.95;3.85;;;;;;;44.34;12.42;99733.16;5032036;28;20044;-69
2022/06/12 07:20:32;;;;;;;4.30;3.85;;;;;;;46.66;10.41;99738.44;5030643;28;20069;-70
2022/06/12 07:22:57;;;;;;;5.70;3.50;;;;;;;47.83;9.55;99726.13;5030766;28;20050;-68
2022/06/12 07:25:23;;;;;;;6.63;3.70;;;;;;;45.80;10.81;99716.28;5031202;28;20398;-71
2022/06/12 07:27:49;;;;;;;4.68;3.30;;;;;;;42.54;13.29;99731.34;5031810;28;20035;-69
2022/06/12 07:30:21;;;;;;;3.95;3.65;;;;;;;39.69;16.04;99732.25;5031851;28;20065;-68
2022/06/12 07:32:47;;;;;;;4.72;4.15;;;;;;;37.34;17.96;99730.09;5030915;28;20029;-69
2022/06/12 07:35:14;;;;;;;4.07;3.70;;;;;;;36.64;19.13;99723.41;5030424;28;20041;-70
2022/06/12 07:37:41;;;;;;;6.05;3.90;;;;;;;39.34;16.44;99708.50;5032116;28;20033;-69
2022/06/12 07:40:14;;;;;;;5.00;3.90;;;;;;;42.23;13.95;99713.63;5031839;28;20523;-68
2022/06/12 07:42:39;;;;;;;4.97;3.65;;;;;;;40.59;14.85;99716.22;5031023;28;20084;-67
2022/06/12 07:45:05;;;;;;;4.28;3.58;;;;;;;38.27;16.95;99718.31;5031093;28;20037;-68
2022/06/12 07:47:32;;;;;;;3.70;3.25;;;;;;;36.28;18.53;99732.25;5031262;28;20042;-69
2022/06/12 07:49:58;;;;;;;4.32;3.60;;;;;;;34.11;20.95;99713.41;5031616;28;20044;-68
2022/06/12 07:52:26;;;;;;;3.90;3.55;;;;;;;32.64;22.99;99733.16;5030423;28;20120;-69
2022/06/12 07:54:52;;;;;;;4.72;4.00;;;;;;;31.44;24.92;99699.59;5029686;28;20104;-68
2022/06/12 07:57:18;;;;;;;4.28;3.30;;;;;;;31.17;25.92;99720.66;5030774;28;20028;-69
2022/06/12 07:59:43;;;;;;;4.15;3.75;;;;;;;30.94;25.31;99713.56;5030964;28;20034;-71
2022/06/12 08:02:09;;;;;;;3.95;3.58;;;;;;;30.68;25.23;99713.31;5030761;28;20033;-70
2022/06/12 08:04:35;;;;;;;3.72;3.42;;;;;;;30.18;26.16;99713.28;5030830;28;20037;-70
2022/06/12 08:07:01;;;;;;;4.45;3.40;;;;;;;30.19;25.90;99701.16;5030759;28;20022;-68
2022/06/12 08:09:27;;;;;;;4.53;2.97;;;;;;;30.36;25.84;99708.50;5030295;28;20040;-70
2022/06/12 08:11:53;;;;;;;4.10;3.55;;;;;;;30.27;25.52;99686.06;5030416;28;20025;-70
2022/06/12 08:14:21;;;;;;;4.70;3.13;;;;;;;30.19;25.64;99723.25;5030354;28;20030;-69
2022/06/12 08:16:46;;;;;;;3.47;3.17;;;;;;;29.69;25.98;99715.94;5031036;28;20040;-68
2022/06/12 08:21:58;;;;;;;4.75;3.15;;;;;;;29.65;26.89;99710.88;5030258;28;20064;-70
2022/06/12 08:24:24;;;;;;;3.70;3.42;;;;;;;30.13;25.72;99704.09;5030474;28;20061;-68
2022/06/12 08:26:50;;;;;;;3.35;3.13;;;;;;;30.95;25.21;99698.66;5030258;28;20377;-67
2022/06/12 08:29:15;;;;;;;3.38;3.08;;;;;;;31.52;24.06;99690.81;5029791;28;20041;-68
2022/06/12 08:31:49;;;;;;;3.90;3.60;;;;;;;31.78;24.44;99690.97;5030818;28;20026;-71
2022/06/12 08:34:30;;;;;;;4.90;3.30;;;;;;;31.68;23.43;99690.91;5030448;28;20040;-67
2022/06/12 08:37:00;;;;;;;3.15;2.85;;;;;;;30.97;24.71;99696.47;5030203;28;20476;-69
2022/06/12 08:39:27;;;;;;;3.58;3.22;;;;;;;30.57;24.26;99693.00;5030280;28;20152;-68
2022/06/12 08:42:07;;;;;;;4.18;2.92;;;;;;;30.41;24.37;99697.53;5030252;28;20033;-69
2022/06/12 08:44:44;;;;;;;2.80;2.60;;;;;;;30.25;24.52;99691.00;5030295;28;20041;-69
2022/06/12 08:47:31;;;;;;;5.97;3.35;;;;;;;29.85;25.49;99694.91;5063145;28;20029;-69
2022/06/12 08:50:04;;;;;;;6.93;3.22;;;;;;;28.91;27.16;99678.81;5010286;28;20037;-69
2022/06/12 08:52:42;;;;;;;4.43;3.20;;;;;;;28.68;27.83;99697.13;5020862;28;20042;-69
2022/06/12 08:55:21;;;;;;;3.92;3.53;;;;;;;28.50;27.81;99685.25;5030087;28;20045;-69
2022/06/12 08:57:53;;;;;;;3.38;3.13;;;;;;;28.50;27.91;99689.91;5030550;28;20061;-69
2022/06/12 09:00:38;;;;;;;5.18;3.05;;;;;;;28.97;26.78;99677.00;5029735;28;20477;-69
2022/06/12 09:03:11;;;;;;;3.40;3.20;;;;;;;28.92;26.96;99662.06;5029882;28;20029;-70
2022/06/12 09:06:07;;;;;;;4.07;3.00;;;;;;;29.39;26.58;99678.47;5030391;28;20504;-70
2022/06/12 09:08:58;;;;;;;5.28;3.22;;;;;;;29.60;26.44;99677.72;5029792;28;20076;-69
2022/06/12 09:11:30;;;;;;;4.90;3.17;;;;;;;29.66;26.20;99681.41;5029775;28;20405;-70
2022/06/12 09:14:14;;;;;;;3.80;3.40;;;;;;;29.49;26.03;99664.88;5029176;28;20032;-69
2022/06/12 09:16:51;;;;;;;3.55;2.92;;;;;;;29.77;25.41;99677.66;5030000;28;20044;-69
2022/06/12 09:19:41;;;;;;;5.35;3.35;;;;;;;30.00;25.21;99674.94;5029591;28;20133;-67
2022/06/12 09:22:17;;;;;;;3.60;2.83;;;;;;;29.92;25.10;99670.69;5030354;28;20037;-70
2022/06/12 09:24:56;;;;;;;5.65;3.20;;;;;;;29.70;25.50;99665.19;5030646;28;20045;-69
2022/06/12 09:27:29;;;;;;;3.35;3.03;;;;;;;29.45;26.18;99672.00;5029586;28;20038;-68
2022/06/12 09:29:59;;;;;;;3.42;3.13;;;;;;;29.18;26.10;99672.66;5029812;28;20143;-68
2022/06/12 09:32:46;;;;;;;3.47;3.03;;;;;;;29.11;26.10;99671.97;5029921;28;20033;-71
2022/06/12 09:35:35;;;;;;;3.55;3.20;;;;;;;29.06;26.37;99665.31;5033745;28;20387;-70
2022/06/12 09:38:19;;;;;;;3.47;3.20;;;;;;;28.58;27.01;99658.41;5033419;28;20029;-69
2022/06/12 09:41:02;;;;;;;3.65;3.28;;;;;;;28.59;26.92;99657.31;5033499;28;20405;-69
2022/06/12 09:43:52;;;;;;;3.85;3.35;;;;;;;28.63;26.54;99655.72;5033310;28;20033;-70
2022/06/12 09:46:45;;;;;;;6.38;3.60;;;;;;;28.72;26.53;99648.75;5033377;28;20037;-62
2022/06/12 09:49:49;;;;;;;4.10;3.40;;;;;;;28.81;26.11;99645.59;5032859;28;20043;-69
2022/06/12 09:52:24;;;;;;;3.38;3.15;;;;;;;28.97;26.08;99650.28;5032829;28;20095;-68
2022/06/12 09:54:59;;;;;;;4.37;3.50;;;;;;;29.18;25.64;99639.59;5033304;28;20042;-69
2022/06/12 09:57:47;;;;;;;3.97;3.30;;;;;;;29.23;25.25;99621.19;5032664;28;20037;-69
2022/06/12 10:00:22;;;;;;;5.15;3.05;;;;;;;29.63;25.34;99644.09;5033561;28;20155;-69
2022/06/12 10:03:00;;;;;;;3.15;2.95;;;;;;;29.94;24.72;99641.75;5034928;28;20040;-61
2022/06/12 10:05:35;;;;;;;4.20;3.50;;;;;;;29.98;24.54;99630.19;5034221;28;20033;-69
2022/06/12 10:08:05;;;;;;;2.75;2.55;;;;;;;30.26;24.68;99640.19;5034044;28;20041;-68
2022/06/12 10:10:42;;;;;;;5.03;3.08;;;;;;;30.43;23.81;99631.81;5034600;28;20124;-68
2022/06/12 10:13:13;;;;;;;3.20;2.90;;;;;;;30.39;24.03;99635.38;5031854;28;20087;-69
2022/06/12 10:15:44;;;;;;;4.10;3.20;;;;;;;30.15;24.39;99633.75;5032382;28;20033;-69
2022/06/12 10:18:22;;;;;;;5.22;2.67;;;;;;;30.00;24.77;99631.59;5032818;28;20029;-66
2022/06/12 10:20:54;;;;;;;3.95;3.10;;;;;;;29.71;25.17;99630.97;5032819;28;20033;-70
2022/06/12 10:23:20;;;;;;;4.70;2.88;;;;;;;29.42;25.19;99620.09;5032402;28;20132;-62
2022/06/12 10:25:53;;;;;;;3.05;2.80;;;;;;;29.32;25.05;99621.59;5033310;28;20549;-69
2022/06/12 10:28:34;;;;;;;4.00;2.85;;;;;;;29.01;25.38;99623.91;5032424;28;20055;-70
2022/06/12 10:31:00;;;;;;;3.30;3.00;;;;;;;28.51;26.40;99615.34;5032001;28;20033;-69
2022/06/12 10:33:56;;;;;;;3.38;3.05;;;;;;;28.53;26.09;99612.31;5032818;28;20366;-69
2022/06/12 10:36:26;;;;;;;;;;;;;;;28.72;25.87;99614.84;5032578;28;20029;-68
2022/06/12 10:39:10;;;;;;;4.80;3.00;;;;;;;28.29;26.15;99617.13;5032157;28;19915;-67
2022/06/12 10:41:52;;;;;;;3.28;3.08;;;;;;;28.17;26.41;99617.19;5030987;28;20036;-70
2022/06/12 10:44:44;;;;;;;4.95;3.20;;;;;;;28.20;26.48;99620.25;5032210;28;20056;-70
2022/06/12 10:47:31;;;;;;;3.25;2.92;;;;;;;28.11;27.08;99616.19;5031508;28;20060;-69
2022/06/12 10:50:24;;;;;;;4.03;3.08;;;;;;;28.13;26.94;99619.53;5032340;28;20401;-71
2022/06/12 10:53:05;;;;;;;3.10;2.85;;;;;;;27.84;27.38;99613.16;5032675;28;20026;-70
2022/06/12 10:56:18;;;;;;;3.35;3.00;;;;;;;27.90;27.27;99609.47;5012064;28;20045;-70
2022/06/12 10:59:09;;;;;;;3.13;2.92;;;;;;;27.68;27.71;99612.03;5003458;28;20044;-71
2022/06/12 11:01:50;;;;;;;5.25;3.10;;;;;;;27.56;27.55;99612.91;5010144;28;20080;-71
2022/06/12 11:04:30;;;;;;;3.50;3.15;;;;;;;27.49;27.36;99613.00;5009354;28;20096;-70
2022/06/12 11:07:17;;;;;;;4.85;2.97;;;;;;;27.35;27.33;99609.66;5009884;28;20037;-70
2022/06/12 11:10:00;;;;;;;3.60;3.10;;;;;;;27.48;27.55;99608.56;4996676;28;20141;-69
2022/06/12 11:12:54;;;;;;;5.82;3.13;;;;;;;27.53;27.13;99605.13;5009845;28;20033;-69
2022/06/12 11:15:30;;;;;;;4.88;3.10;;;;;;;27.74;26.77;99598.13;5001616;28;20046;-71
2022/06/12 11:17:55;;;;;;;;;;;;;;;28.30;26.04;99596.78;5010049;28;20033;-70
2022/06/12 11:20:36;;;;;;;3.30;3.00;;;;;;;28.34;25.96;99587.78;5010477;28;19913;-71
2022/06/12 11:23:30;;;;;;;5.30;2.80;;;;;;;28.77;25.89;99590.13;5009514;28;20058;-68
2022/06/12 11:26:01;;;;;;;3.10;2.90;;;;;;;28.67;26.26;99578.94;5009083;28;20041;-69
2022/06/12 11:28:45;;;;;;;3.03;2.65;;;;;;;28.78;25.87;99581.63;4995831;28;20041;-69
2022/06/12 11:31:29;;;;;;;4.50;3.42;;;;;;;28.47;26.09;99580.28;5031822;28;20117;-70
2022/06/12 11:34:00;;;;;;;5.20;3.10;;;;;;;27.92;26.78;99579.78;5031190;28;20036;-69
2022/06/12 11:36:40;;;;;;;3.22;3.03;;;;;;;27.96;26.61;99586.47;5031066;28;20075;-69
2022/06/12 11:39:30;;;;;;;7.90;3.30;;;;;;;27.98;27.08;99583.50;5031073;28;20116;-70
2022/06/12 11:42:07;;;;;;;4.15;2.97;;;;;;;27.58;27.38;99568.66;5030869;28;20366;-69
2022/06/12 11:44:45;;;;;;;3.08;2.85;;;;;;;27.49;27.38;99576.41;5031067;28;20060;-69
2022/06/12 11:47:41;;;;;;;3.45;3.15;;;;;;;27.92;26.78;99574.28;5031128;28;20029;-69
2022/06/12 11:50:16;;;;;;;4.53;2.95;;;;;;;27.78;26.50;99580.06;5011701;28;20038;-68
2022/06/12 11:52:53;;;;;;;5.23;3.10;;;;;;;27.69;27.14;99565.03;5016899;28;20358;-71
2022/06/12 11:55:25;;;;;;;3.55;3.10;;;;;;;27.97;26.68;99571.63;5030644;28;20293;-69
2022/06/12 11:58:11;;;;;;;3.45;2.80;;;;;;;28.02;26.52;99546.16;5030390;28;20073;-69
2022/06/12 12:01:00;;;;;;;3.72;2.78;;;;;;;28.16;26.89;99558.53;5030067;28;20026;-71
2022/06/12 12:03:28;;;;;;;3.90;3.28;;;;;;;28.14;25.72;99559.84;5030287;28;20414;-68
2022/06/12 12:06:12;;;;;;;3.28;2.97;;;;;;;27.86;26.44;99550.53;5030538;28;20057;-69
2022/06/12 12:08:46;;;;;;;3.70;2.90;;;;;;;28.05;26.25;99553.91;5030380;28;20481;-70
2022/06/12 12:11:21;;;;;;;3.47;3.10;;;;;;;28.20;26.25;99543.19;5030013;28;20116;-68